sensor_id;sensor_type;location;lat;lon;timestamp;temperature;humidity
9790;DHT22;4934;50.852;8.098;2022-09-30T00:00:57;2.30;99.90
9790;DHT22;4934;50.852;8.098;2022-09-30T00:03:23;2.30;99.90
9790;DHT22;4934;50.852;8.098;2022-09-30T00:06:04;2.30;99.90
9790;DHT22;4934;50.852;8.098;2022-09-30T00:08:30;2.30;99.90
9790;DHT22;4934;50.852;8.098;2022-09-30T00:11:00;2.30;99.90
9790;DHT22;4934;50.852;8.098;2022-09-30T00:13:26;2.30;99.90
9790;DHT22;4934;50.852;8.098;2022-09-30T00:15:52;2.20;99.90
9790;DHT22;4934;50.852;8.098;2022-09-30T00:18:17;2.30;99.90
9790;DHT22;4934;50.852;8.098;2022-09-30T00:20:43;2.20;99.90
9790;DHT22;4934;50.852;8.098;2022-09-30T00:23:08;2.20;99.90
9790;DHT22;4934;50.852;8.098;2022-09-30T00:25:34;2.20;99.90
9790;DHT22;4934;50.852;8.098;2022-09-30T00:28:00;2.20;99.90
9790;DHT22;4934;50.852;8.098;2022-09-30T00:30:25;2.20;99.90
9790;DHT22;4934;50.852;8.098;2022-09-30T00:32:51;2.20;99.90
9790;DHT22;4934;50.852;8.098;2022-09-30T00:35:16;2.20;99.90
9790;DHT22;4934;50.852;8.098;2022-09-30T00:37:42;2.20;99.90
9790;DHT22;4934;50.852;8.098;2022-09-30T00:40:08;2.20;99.90
9790;DHT22;4934;50.852;8.098;2022-09-30T00:42:39;2.20;99.90
9790;DHT22;4934;50.852;8.098;2022-09-30T00:45:08;2.10;99.90
9790;DHT22;4934;50.852;8.098;2022-09-30T00:53:02;2.00;99.90
9790;DHT22;4934;50.852;8.098;2022-09-30T00:58:22;2.00;99.90
9790;DHT22;4934;50.852;8.098;2022-09-30T01:00:49;2.00;99.90
9790;DHT22;4934;50.852;8.098;2022-09-30T01:03:16;2.00;99.90
9790;DHT22;4934;50.852;8.098;2022-09-30T01:05:42;2.00;99.90
9790;DHT22;4934;50.852;8.098;2022-09-30T01:08:09;2.00;99.90
9790;DHT22;4934;50.852;8.098;2022-09-30T01:10:35;2.00;99.90
9790;DHT22;4934;50.852;8.098;2022-09-30T01:13:02;1.90;99.90
9790;DHT22;4934;50.852;8.098;2022-09-30T01:15:41;1.80;99.90
9790;DHT22;4934;50.852;8.098;2022-09-30T01:18:28;1.80;99.90
9790;DHT22;4934;50.852;8.098;2022-09-30T01:24:22;1.70;99.90
9790;DHT22;4934;50.852;8.098;2022-09-30T01:33:17;1.70;99.90
9790;DHT22;4934;50.852;8.098;2022-09-30T01:54:02;1.50;99.90
9790;DHT22;4934;50.852;8.098;2022-09-30T01:57:07;1.50;99.90
9790;DHT22;4934;50.852;8.098;2022-09-30T01:59:42;1.50;99.90
9790;DHT22;4934;50.852;8.098;2022-09-30T02:02:15;1.70;99.90
9790;DHT22;4934;50.852;8.098;2022-09-30T02:04:49;1.70;99.90
9790;DHT22;4934;50.852;8.098;2022-09-30T02:07:22;1.60;99.90
9790;DHT22;4934;50.852;8.098;2022-09-30T02:09:58;1.50;99.90
9790;DHT22;4934;50.852;8.098;2022-09-30T02:12:30;1.40;99.90
9790;DHT22;4934;50.852;8.098;2022-09-30T02:15:06;1.40;99.90
9790;DHT22;4934;50.852;8.098;2022-09-30T02:17:52;1.40;99.90
9790;DHT22;4934;50.852;8.098;2022-09-30T02:20:26;1.30;99.90
9790;DHT22;4934;50.852;8.098;2022-09-30T02:23:04;1.30;99.90
9790;DHT22;4934;50.852;8.098;2022-09-30T02:25:41;1.30;99.90
9790;DHT22;4934;50.852;8.098;2022-09-30T02:28:11;1.30;99.90
9790;DHT22;4934;50.852;8.098;2022-09-30T02:30:41;1.20;99.90
9790;DHT22;4934;50.852;8.098;2022-09-30T02:33:51;1.20;99.90
9790;DHT22;4934;50.852;8.098;2022-09-30T02:36:17;1.30;99.90
9790;DHT22;4934;50.852;8.098;2022-09-30T02:38:45;1.30;99.90
9790;DHT22;4934;50.852;8.098;2022-09-30T02:41:20;1.20;99.90
9790;DHT22;4934;50.852;8.098;2022-09-30T02:43:48;1.10;99.90
9790;DHT22;4934;50.852;8.098;2022-09-30T02:46:41;1.10;99.90
9790;DHT22;4934;50.852;8.098;2022-09-30T02:51:50;1.10;99.90
9790;DHT22;4934;50.852;8.098;2022-09-30T02:54:28;1.10;99.90
9790;DHT22;4934;50.852;8.098;2022-09-30T03:00:12;1.00;99.90
9790;DHT22;4934;50.852;8.098;2022-09-30T03:02:39;1.00;99.90
9790;DHT22;4934;50.852;8.098;2022-09-30T03:05:05;1.00;99.90
9790;DHT22;4934;50.852;8.098;2022-09-30T03:07:32;1.00;99.90
9790;DHT22;4934;50.852;8.098;2022-09-30T03:09:58;0.90;99.90
9790;DHT22;4934;50.852;8.098;2022-09-30T03:15:44;1.00;99.90
9790;DHT22;4934;50.852;8.098;2022-09-30T03:18:32;1.00;99.90
9790;DHT22;4934;50.852;8.098;2022-09-30T03:21:07;1.00;99.90
9790;DHT22;4934;50.852;8.098;2022-09-30T03:24:01;1.00;99.90
9790;DHT22;4934;50.852;8.098;2022-09-30T03:26:57;1.00;99.90
9790;DHT22;4934;50.852;8.098;2022-09-30T03:35:23;1.00;99.90
9790;DHT22;4934;50.852;8.098;2022-09-30T03:38:09;1.00;99.90
9790;DHT22;4934;50.852;8.098;2022-09-30T03:40:43;1.00;99.90
9790;DHT22;4934;50.852;8.098;2022-09-30T03:46:22;0.90;99.90
9790;DHT22;4934;50.852;8.098;2022-09-30T03:48:54;0.90;99.90
9790;DHT22;4934;50.852;8.098;2022-09-30T03:51:21;0.90;99.90
9790;DHT22;4934;50.852;8.098;2022-09-30T03:53:49;0.90;99.90
9790;DHT22;4934;50.852;8.098;2022-09-30T03:56:27;0.90;99.90
9790;DHT22;4934;50.852;8.098;2022-09-30T03:58:54;0.90;99.90
9790;DHT22;4934;50.852;8.098;2022-09-30T04:01:20;0.90;99.90
9790;DHT22;4934;50.852;8.098;2022-09-30T04:03:51;0.90;99.90
9790;DHT22;4934;50.852;8.098;2022-09-30T04:06:21;0.90;99.90
9790;DHT22;4934;50.852;8.098;2022-09-30T04:08:47;0.90;99.90
9790;DHT22;4934;50.852;8.098;2022-09-30T04:11:13;1.00;99.90
9790;DHT22;4934;50.852;8.098;2022-09-30T04:13:39;1.00;99.90
9790;DHT22;4934;50.852;8.098;2022-09-30T04:16:08;0.90;99.90
9790;DHT22;4934;50.852;8.098;2022-09-30T04:18:37;0.80;99.90
9790;DHT22;4934;50.852;8.098;2022-09-30T04:21:07;0.70;99.90
9790;DHT22;4934;50.852;8.098;2022-09-30T04:23:37;0.70;99.90
9790;DHT22;4934;50.852;8.098;2022-09-30T04:26:05;0.70;99.90
9790;DHT22;4934;50.852;8.098;2022-09-30T04:28:32;0.60;99.90
9790;DHT22;4934;50.852;8.098;2022-09-30T04:31:03;0.60;99.90
9790;DHT22;4934;50.852;8.098;2022-09-30T04:33:29;0.60;99.90
9790;DHT22;4934;50.852;8.098;2022-09-30T04:35:56;0.50;99.90
9790;DHT22;4934;50.852;8.098;2022-09-30T04:38:23;0.60;99.90
9790;DHT22;4934;50.852;8.098;2022-09-30T04:40:49;0.50;99.90
9790;DHT22;4934;50.852;8.098;2022-09-30T04:43:18;0.60;99.90
9790;DHT22;4934;50.852;8.098;2022-09-30T04:45:45;0.60;99.90
9790;DHT22;4934;50.852;8.098;2022-09-30T04:48:14;0.60;99.90
9790;DHT22;4934;50.852;8.098;2022-09-30T04:50:41;0.60;99.90
9790;DHT22;4934;50.852;8.098;2022-09-30T04:53:07;0.70;99.90
9790;DHT22;4934;50.852;8.098;2022-09-30T04:55:33;0.70;99.90
9790;DHT22;4934;50.852;8.098;2022-09-30T04:58:00;0.70;99.90
9790;DHT22;4934;50.852;8.098;2022-09-30T05:00:25;0.60;99.90
9790;DHT22;4934;50.852;8.098;2022-09-30T05:02:51;0.50;99.90
9790;DHT22;4934;50.852;8.098;2022-09-30T05:05:17;0.40;99.90
9790;DHT22;4934;50.852;8.098;2022-09-30T05:07:43;0.40;99.90
9790;DHT22;4934;50.852;8.098;2022-09-30T05:10:10;0.40;99.90
9790;DHT22;4934;50.852;8.098;2022-09-30T05:12:36;0.40;99.90
9790;DHT22;4934;50.852;8.098;2022-09-30T05:15:06;0.40;99.90
9790;DHT22;4934;50.852;8.098;2022-09-30T05:17:31;0.30;99.90
9790;DHT22;4934;50.852;8.098;2022-09-30T05:19:57;0.30;99.90
9790;DHT22;4934;50.852;8.098;2022-09-30T05:22:23;0.30;99.90
9790;DHT22;4934;50.852;8.098;2022-09-30T05:24:53;0.30;99.90
9790;DHT22;4934;50.852;8.098;2022-09-30T05:27:21;0.30;99.90
9790;DHT22;4934;50.852;8.098;2022-09-30T05:29:47;0.30;99.90
9790;DHT22;4934;50.852;8.098;2022-09-30T05:32:13;0.40;99.90
9790;DHT22;4934;50.852;8.098;2022-09-30T05:34:38;0.50;99.90
9790;DHT22;4934;50.852;8.098;2022-09-30T05:37:05;0.40;99.90
9790;DHT22;4934;50.852;8.098;2022-09-30T05:39:31;0.30;99.90
9790;DHT22;4934;50.852;8.098;2022-09-30T05:41:57;0.30;99.90
9790;DHT22;4934;50.852;8.098;2022-09-30T05:44:23;0.30;99.90
9790;DHT22;4934;50.852;8.098;2022-09-30T05:46:49;0.20;99.90
9790;DHT22;4934;50.852;8.098;2022-09-30T05:49:15;0.20;99.90
9790;DHT22;4934;50.852;8.098;2022-09-30T05:51:41;0.30;99.90
9790;DHT22;4934;50.852;8.098;2022-09-30T05:54:09;0.30;99.90
9790;DHT22;4934;50.852;8.098;2022-09-30T05:56:35;0.30;99.90
9790;DHT22;4934;50.852;8.098;2022-09-30T05:59:05;0.30;99.90
9790;DHT22;4934;50.852;8.098;2022-09-30T06:01:31;0.40;99.90
9790;DHT22;4934;50.852;8.098;2022-09-30T06:03:57;0.50;99.90
9790;DHT22;4934;50.852;8.098;2022-09-30T06:06:22;0.50;99.90
9790;DHT22;4934;50.852;8.098;2022-09-30T06:08:48;0.60;99.90
9790;DHT22;4934;50.852;8.098;2022-09-30T06:11:16;0.60;99.90
9790;DHT22;4934;50.852;8.098;2022-09-30T06:13:44;0.60;99.90
9790;DHT22;4934;50.852;8.098;2022-09-30T06:16:10;0.60;99.90
9790;DHT22;4934;50.852;8.098;2022-09-30T06:18:37;0.60;99.90
9790;DHT22;4934;50.852;8.098;2022-09-30T06:21:07;0.70;99.90
9790;DHT22;4934;50.852;8.098;2022-09-30T06:23:34;0.70;99.90
9790;DHT22;4934;50.852;8.098;2022-09-30T06:26:00;0.70;99.90
9790;DHT22;4934;50.852;8.098;2022-09-30T06:28:26;0.80;99.90
9790;DHT22;4934;50.852;8.098;2022-09-30T06:30:53;0.80;99.90
9790;DHT22;4934;50.852;8.098;2022-09-30T06:33:19;0.90;99.90
9790;DHT22;4934;50.852;8.098;2022-09-30T06:35:46;0.90;99.90
9790;DHT22;4934;50.852;8.098;2022-09-30T06:38:13;1.00;99.90
9790;DHT22;4934;50.852;8.098;2022-09-30T06:40:44;1.10;99.90
9790;DHT22;4934;50.852;8.098;2022-09-30T06:43:15;1.10;99.90
9790;DHT22;4934;50.852;8.098;2022-09-30T06:45:41;1.20;99.90
9790;DHT22;4934;50.852;8.098;2022-09-30T06:48:08;1.20;99.90
9790;DHT22;4934;50.852;8.098;2022-09-30T06:50:33;1.30;99.90
9790;DHT22;4934;50.852;8.098;2022-09-30T06:53:01;1.30;99.90
9790;DHT22;4934;50.852;8.098;2022-09-30T06:55:28;1.30;99.90
9790;DHT22;4934;50.852;8.098;2022-09-30T06:57:55;1.40;99.90
9790;DHT22;4934;50.852;8.098;2022-09-30T07:00:22;1.50;99.90
9790;DHT22;4934;50.852;8.098;2022-09-30T07:02:48;1.60;99.90
9790;DHT22;4934;50.852;8.098;2022-09-30T07:05:14;1.70;99.90
9790;DHT22;4934;50.852;8.098;2022-09-30T07:07:40;1.80;99.90
9790;DHT22;4934;50.852;8.098;2022-09-30T07:10:07;1.90;99.90
9790;DHT22;4934;50.852;8.098;2022-09-30T07:12:33;2.00;99.90
9790;DHT22;4934;50.852;8.098;2022-09-30T07:14:59;2.00;99.90
9790;DHT22;4934;50.852;8.098;2022-09-30T07:17:25;2.10;99.90
9790;DHT22;4934;50.852;8.098;2022-09-30T07:19:51;2.20;99.90
9790;DHT22;4934;50.852;8.098;2022-09-30T07:22:18;2.30;99.90
9790;DHT22;4934;50.852;8.098;2022-09-30T07:24:59;2.40;99.90
9790;DHT22;4934;50.852;8.098;2022-09-30T07:27:26;2.40;99.90
9790;DHT22;4934;50.852;8.098;2022-09-30T07:29:53;2.50;99.90
9790;DHT22;4934;50.852;8.098;2022-09-30T07:32:20;2.60;99.90
9790;DHT22;4934;50.852;8.098;2022-09-30T07:34:45;2.70;99.90
9790;DHT22;4934;50.852;8.098;2022-09-30T07:37:13;2.80;99.90
9790;DHT22;4934;50.852;8.098;2022-09-30T07:39:41;2.90;99.90
9790;DHT22;4934;50.852;8.098;2022-09-30T07:42:07;3.00;99.90
9790;DHT22;4934;50.852;8.098;2022-09-30T07:44:33;3.10;99.90
9790;DHT22;4934;50.852;8.098;2022-09-30T07:47:00;3.20;99.90
9790;DHT22;4934;50.852;8.098;2022-09-30T07:49:26;3.30;99.90
9790;DHT22;4934;50.852;8.098;2022-09-30T07:51:56;3.40;99.90
9790;DHT22;4934;50.852;8.098;2022-09-30T07:54:28;3.50;99.90
9790;DHT22;4934;50.852;8.098;2022-09-30T07:56:54;3.60;99.90
9790;DHT22;4934;50.852;8.098;2022-09-30T07:59:20;3.70;99.90
9790;DHT22;4934;50.852;8.098;2022-09-30T08:01:47;3.80;99.90
9790;DHT22;4934;50.852;8.098;2022-09-30T08:04:14;3.90;99.90
9790;DHT22;4934;50.852;8.098;2022-09-30T08:06:43;4.10;99.90
9790;DHT22;4934;50.852;8.098;2022-09-30T08:09:09;4.20;99.90
9790;DHT22;4934;50.852;8.098;2022-09-30T08:11:36;4.40;99.90
9790;DHT22;4934;50.852;8.098;2022-09-30T08:14:02;4.50;99.90
9790;DHT22;4934;50.852;8.098;2022-09-30T08:16:28;4.60;99.90
9790;DHT22;4934;50.852;8.098;2022-09-30T08:19:00;4.80;99.90
9790;DHT22;4934;50.852;8.098;2022-09-30T08:21:27;4.90;99.90
9790;DHT22;4934;50.852;8.098;2022-09-30T08:23:53;5.00;99.90
9790;DHT22;4934;50.852;8.098;2022-09-30T08:26:19;5.10;99.90
9790;DHT22;4934;50.852;8.098;2022-09-30T08:28:45;5.20;99.90
9790;DHT22;4934;50.852;8.098;2022-09-30T08:33:39;5.50;99.90
9790;DHT22;4934;50.852;8.098;2022-09-30T08:36:13;5.60;99.90
9790;DHT22;4934;50.852;8.098;2022-09-30T08:38:39;5.70;99.90
9790;DHT22;4934;50.852;8.098;2022-09-30T08:41:23;5.90;99.90
9790;DHT22;4934;50.852;8.098;2022-09-30T08:46:45;6.20;99.90
9790;DHT22;4934;50.852;8.098;2022-09-30T08:49:42;6.30;99.90
9790;DHT22;4934;50.852;8.098;2022-09-30T08:52:25;6.50;99.90
9790;DHT22;4934;50.852;8.098;2022-09-30T08:54:53;6.60;99.90
9790;DHT22;4934;50.852;8.098;2022-09-30T08:57:20;6.80;99.90
9790;DHT22;4934;50.852;8.098;2022-09-30T08:59:56;6.90;99.90
9790;DHT22;4934;50.852;8.098;2022-09-30T09:02:25;7.10;99.90
9790;DHT22;4934;50.852;8.098;2022-09-30T09:04:55;7.20;99.90
9790;DHT22;4934;50.852;8.098;2022-09-30T09:07:49;7.30;99.90
9790;DHT22;4934;50.852;8.098;2022-09-30T09:10:41;7.50;99.90
9790;DHT22;4934;50.852;8.098;2022-09-30T09:15:53;7.80;99.90
9790;DHT22;4934;50.852;8.098;2022-09-30T09:18:59;7.90;99.90
9790;DHT22;4934;50.852;8.098;2022-09-30T09:24:05;8.20;99.90
9790;DHT22;4934;50.852;8.098;2022-09-30T09:26:36;8.30;99.90
9790;DHT22;4934;50.852;8.098;2022-09-30T09:29:22;8.50;99.90
9790;DHT22;4934;50.852;8.098;2022-09-30T09:31:50;8.60;99.90
9790;DHT22;4934;50.852;8.098;2022-09-30T09:34:15;8.80;99.90
9790;DHT22;4934;50.852;8.098;2022-09-30T09:42:05;9.30;99.90
9790;DHT22;4934;50.852;8.098;2022-09-30T09:45:09;9.50;99.90
9790;DHT22;4934;50.852;8.098;2022-09-30T09:47:36;9.60;99.90
9790;DHT22;4934;50.852;8.098;2022-09-30T09:50:03;9.70;99.90
9790;DHT22;4934;50.852;8.098;2022-09-30T09:55:32;10.00;99.90
9790;DHT22;4934;50.852;8.098;2022-09-30T09:58:13;10.10;99.90
9790;DHT22;4934;50.852;8.098;2022-09-30T10:00:40;10.20;99.90
9790;DHT22;4934;50.852;8.098;2022-09-30T10:03:21;10.40;99.90
9790;DHT22;4934;50.852;8.098;2022-09-30T10:06:07;10.50;99.90
9790;DHT22;4934;50.852;8.098;2022-09-30T10:08:36;10.70;99.90
9790;DHT22;4934;50.852;8.098;2022-09-30T10:11:19;10.90;99.90
9790;DHT22;4934;50.852;8.098;2022-09-30T10:13:45;11.00;99.90
9790;DHT22;4934;50.852;8.098;2022-09-30T10:16:40;11.10;99.90
9790;DHT22;4934;50.852;8.098;2022-09-30T10:19:27;11.20;99.90
9790;DHT22;4934;50.852;8.098;2022-09-30T10:24:35;11.40;99.90
9790;DHT22;4934;50.852;8.098;2022-09-30T10:27:01;11.50;99.90
9790;DHT22;4934;50.852;8.098;2022-09-30T10:29:30;11.50;99.90
9790;DHT22;4934;50.852;8.098;2022-09-30T10:31:58;11.50;99.90
9790;DHT22;4934;50.852;8.098;2022-09-30T10:34:32;11.60;99.90
9790;DHT22;4934;50.852;8.098;2022-09-30T10:37:01;11.60;99.90
9790;DHT22;4934;50.852;8.098;2022-09-30T10:39:36;11.70;99.90
9790;DHT22;4934;50.852;8.098;2022-09-30T10:42:10;11.80;99.90
9790;DHT22;4934;50.852;8.098;2022-09-30T10:44:45;11.90;99.90
9790;DHT22;4934;50.852;8.098;2022-09-30T10:47:20;12.10;99.90
9790;DHT22;4934;50.852;8.098;2022-09-30T10:52:27;12.20;99.90
9790;DHT22;4934;50.852;8.098;2022-09-30T10:54:55;12.30;99.90
9790;DHT22;4934;50.852;8.098;2022-09-30T10:57:28;12.40;99.90
9790;DHT22;4934;50.852;8.098;2022-09-30T11:00:03;12.60;99.90
9790;DHT22;4934;50.852;8.098;2022-09-30T11:10:47;12.90;99.90
9790;DHT22;4934;50.852;8.098;2022-09-30T11:13:30;13.00;99.90
9790;DHT22;4934;50.852;8.098;2022-09-30T11:21:17;13.30;99.90
9790;DHT22;4934;50.852;8.098;2022-09-30T11:37:29;13.70;99.90
9790;DHT22;4934;50.852;8.098;2022-09-30T11:40:20;13.60;99.90
9790;DHT22;4934;50.852;8.098;2022-09-30T11:54:00;14.20;99.90
9790;DHT22;4934;50.852;8.098;2022-09-30T11:59:03;14.40;99.90
9790;DHT22;4934;50.852;8.098;2022-09-30T12:01:40;14.40;99.90
9790;DHT22;4934;50.852;8.098;2022-09-30T12:04:12;14.30;99.90
9790;DHT22;4934;50.852;8.098;2022-09-30T12:06:48;14.30;99.90
9790;DHT22;4934;50.852;8.098;2022-09-30T12:09:16;14.30;99.90
9790;DHT22;4934;50.852;8.098;2022-09-30T12:11:47;14.20;99.90
9790;DHT22;4934;50.852;8.098;2022-09-30T12:14:33;14.20;99.90
9790;DHT22;4934;50.852;8.098;2022-09-30T12:17:03;14.20;99.90
9790;DHT22;4934;50.852;8.098;2022-09-30T12:19:35;14.20;99.90
9790;DHT22;4934;50.852;8.098;2022-09-30T12:22:30;14.20;99.90
9790;DHT22;4934;50.852;8.098;2022-09-30T12:24:54;14.20;99.90
9790;DHT22;4934;50.852;8.098;2022-09-30T12:27:36;14.20;99.90
9790;DHT22;4934;50.852;8.098;2022-09-30T12:30:12;14.20;99.90
9790;DHT22;4934;50.852;8.098;2022-09-30T12:38:20;14.60;99.90
9790;DHT22;4934;50.852;8.098;2022-09-30T12:41:25;14.70;99.90
9790;DHT22;4934;50.852;8.098;2022-09-30T12:47:07;14.60;99.90
9790;DHT22;4934;50.852;8.098;2022-09-30T12:49:38;14.50;99.90
9790;DHT22;4934;50.852;8.098;2022-09-30T12:52:14;14.60;99.90
9790;DHT22;4934;50.852;8.098;2022-09-30T12:54:55;14.70;99.90
9790;DHT22;4934;50.852;8.098;2022-09-30T12:57:32;14.80;99.90
9790;DHT22;4934;50.852;8.098;2022-09-30T13:00:03;14.80;99.90
9790;DHT22;4934;50.852;8.098;2022-09-30T13:02:38;14.90;99.90
9790;DHT22;4934;50.852;8.098;2022-09-30T13:10:46;15.00;99.90
9790;DHT22;4934;50.852;8.098;2022-09-30T13:13:23;15.00;99.90
9790;DHT22;4934;50.852;8.098;2022-09-30T13:15:52;14.90;99.90
9790;DHT22;4934;50.852;8.098;2022-09-30T13:34:27;15.30;99.90
9790;DHT22;4934;50.852;8.098;2022-09-30T13:37:32;15.30;99.90
9790;DHT22;4934;50.852;8.098;2022-09-30T13:39:59;15.30;99.90
9790;DHT22;4934;50.852;8.098;2022-09-30T13:42:26;15.20;99.90
9790;DHT22;4934;50.852;8.098;2022-09-30T13:47:54;15.20;99.90
9790;DHT22;4934;50.852;8.098;2022-09-30T13:50:36;15.30;99.90
9790;DHT22;4934;50.852;8.098;2022-09-30T13:53:13;15.40;99.90
9790;DHT22;4934;50.852;8.098;2022-09-30T13:55:45;15.40;99.90
9790;DHT22;4934;50.852;8.098;2022-09-30T14:21:09;15.50;99.90
9790;DHT22;4934;50.852;8.098;2022-09-30T14:23:38;15.50;99.90
9790;DHT22;4934;50.852;8.098;2022-09-30T14:29:20;15.50;99.90
9790;DHT22;4934;50.852;8.098;2022-09-30T14:31:49;15.40;99.90
9790;DHT22;4934;50.852;8.098;2022-09-30T14:34:16;15.40;99.90
9790;DHT22;4934;50.852;8.098;2022-09-30T14:36:43;15.40;99.90
9790;DHT22;4934;50.852;8.098;2022-09-30T14:39:27;15.50;99.90
9790;DHT22;4934;50.852;8.098;2022-09-30T14:41:59;15.50;99.90
9790;DHT22;4934;50.852;8.098;2022-09-30T14:44:29;15.40;99.90
9790;DHT22;4934;50.852;8.098;2022-09-30T14:46:56;15.40;99.90
9790;DHT22;4934;50.852;8.098;2022-09-30T14:49:28;15.40;99.90
9790;DHT22;4934;50.852;8.098;2022-09-30T14:51:58;15.40;99.90
9790;DHT22;4934;50.852;8.098;2022-09-30T14:54:26;15.40;99.90
9790;DHT22;4934;50.852;8.098;2022-09-30T14:56:56;15.40;99.90
9790;DHT22;4934;50.852;8.098;2022-09-30T14:59:31;15.50;99.90
9790;DHT22;4934;50.852;8.098;2022-09-30T15:02:03;15.50;99.90
9790;DHT22;4934;50.852;8.098;2022-09-30T15:04:38;15.50;99.90
9790;DHT22;4934;50.852;8.098;2022-09-30T15:07:09;15.40;99.90
9790;DHT22;4934;50.852;8.098;2022-09-30T15:09:45;15.30;99.90
9790;DHT22;4934;50.852;8.098;2022-09-30T15:12:17;15.40;99.90
9790;DHT22;4934;50.852;8.098;2022-09-30T15:14:55;15.40;99.90
9790;DHT22;4934;50.852;8.098;2022-09-30T15:19:51;15.30;99.90
9790;DHT22;4934;50.852;8.098;2022-09-30T15:22:18;15.30;99.90
9790;DHT22;4934;50.852;8.098;2022-09-30T15:24:46;15.30;99.90
9790;DHT22;4934;50.852;8.098;2022-09-30T15:27:31;15.20;99.90
9790;DHT22;4934;50.852;8.098;2022-09-30T15:30:03;15.10;99.90
9790;DHT22;4934;50.852;8.098;2022-09-30T15:32:32;15.20;99.90
9790;DHT22;4934;50.852;8.098;2022-09-30T15:35:11;15.10;99.90
9790;DHT22;4934;50.852;8.098;2022-09-30T15:37:39;15.00;99.90
9790;DHT22;4934;50.852;8.098;2022-09-30T15:40:17;15.00;99.90
9790;DHT22;4934;50.852;8.098;2022-09-30T15:43:05;15.00;99.90
9790;DHT22;4934;50.852;8.098;2022-09-30T15:45:37;15.00;99.90
9790;DHT22;4934;50.852;8.098;2022-09-30T15:50:58;14.90;99.90
9790;DHT22;4934;50.852;8.098;2022-09-30T15:58:40;14.80;99.90
9790;DHT22;4934;50.852;8.098;2022-09-30T16:01:35;14.70;99.90
9790;DHT22;4934;50.852;8.098;2022-09-30T16:06:53;14.70;99.90
9790;DHT22;4934;50.852;8.098;2022-09-30T16:09:33;14.70;99.90
9790;DHT22;4934;50.852;8.098;2022-09-30T16:14:59;14.50;99.90
9790;DHT22;4934;50.852;8.098;2022-09-30T16:17:33;14.50;99.90
9790;DHT22;4934;50.852;8.098;2022-09-30T16:20:05;14.40;99.90
9790;DHT22;4934;50.852;8.098;2022-09-30T16:25:30;14.20;99.90
9790;DHT22;4934;50.852;8.098;2022-09-30T16:28:11;14.10;99.90
9790;DHT22;4934;50.852;8.098;2022-09-30T16:31:04;14.00;99.90
9790;DHT22;4934;50.852;8.098;2022-09-30T16:33:33;13.90;99.90
9790;DHT22;4934;50.852;8.098;2022-09-30T16:36:03;13.80;99.90
9790;DHT22;4934;50.852;8.098;2022-09-30T16:38:28;13.70;99.90
9790;DHT22;4934;50.852;8.098;2022-09-30T16:40:54;13.60;99.90
9790;DHT22;4934;50.852;8.098;2022-09-30T16:43:20;13.50;99.90
9790;DHT22;4934;50.852;8.098;2022-09-30T16:45:49;13.50;99.90
9790;DHT22;4934;50.852;8.098;2022-09-30T16:48:16;13.40;99.90
9790;DHT22;4934;50.852;8.098;2022-09-30T16:51:12;13.30;99.90
9790;DHT22;4934;50.852;8.098;2022-09-30T16:53:39;13.10;99.90
9790;DHT22;4934;50.852;8.098;2022-09-30T16:56:05;12.90;99.90
9790;DHT22;4934;50.852;8.098;2022-09-30T16:58:31;12.70;99.90
9790;DHT22;4934;50.852;8.098;2022-09-30T17:00:57;12.60;99.90
9790;DHT22;4934;50.852;8.098;2022-09-30T17:03:25;12.50;99.90
9790;DHT22;4934;50.852;8.098;2022-09-30T17:05:51;12.40;99.90
9790;DHT22;4934;50.852;8.098;2022-09-30T17:08:20;12.20;99.90
9790;DHT22;4934;50.852;8.098;2022-09-30T17:10:46;12.00;99.90
9790;DHT22;4934;50.852;8.098;2022-09-30T17:13:15;11.90;99.90
9790;DHT22;4934;50.852;8.098;2022-09-30T17:15:47;11.70;99.90
9790;DHT22;4934;50.852;8.098;2022-09-30T17:18:16;11.50;99.90
9790;DHT22;4934;50.852;8.098;2022-09-30T17:21:08;11.20;99.90
9790;DHT22;4934;50.852;8.098;2022-09-30T17:23:36;11.00;99.90
9790;DHT22;4934;50.852;8.098;2022-09-30T17:26:05;10.90;99.90
9790;DHT22;4934;50.852;8.098;2022-09-30T17:28:31;10.70;99.90
9790;DHT22;4934;50.852;8.098;2022-09-30T17:30:59;10.40;99.90
9790;DHT22;4934;50.852;8.098;2022-09-30T17:33:29;10.20;99.90
9790;DHT22;4934;50.852;8.098;2022-09-30T17:35:59;10.20;99.90
9790;DHT22;4934;50.852;8.098;2022-09-30T17:38:26;10.10;99.90
9790;DHT22;4934;50.852;8.098;2022-09-30T17:40:51;9.90;99.90
9790;DHT22;4934;50.852;8.098;2022-09-30T17:43:35;9.80;99.90
9790;DHT22;4934;50.852;8.098;2022-09-30T17:46:01;9.70;99.90
9790;DHT22;4934;50.852;8.098;2022-09-30T17:48:27;9.60;99.90
9790;DHT22;4934;50.852;8.098;2022-09-30T17:50:53;9.50;99.90
9790;DHT22;4934;50.852;8.098;2022-09-30T17:53:57;9.40;99.90
9790;DHT22;4934;50.852;8.098;2022-09-30T17:56:36;9.40;99.90
9790;DHT22;4934;50.852;8.098;2022-09-30T17:59:10;9.30;99.90
9790;DHT22;4934;50.852;8.098;2022-09-30T18:01:36;9.20;99.90
9790;DHT22;4934;50.852;8.098;2022-09-30T18:04:10;9.10;99.90
9790;DHT22;4934;50.852;8.098;2022-09-30T18:06:42;9.00;99.90
9790;DHT22;4934;50.852;8.098;2022-09-30T18:09:17;8.90;99.90
9790;DHT22;4934;50.852;8.098;2022-09-30T18:11:46;8.80;99.90
9790;DHT22;4934;50.852;8.098;2022-09-30T18:14:15;8.70;99.90
9790;DHT22;4934;50.852;8.098;2022-09-30T18:16:41;8.70;99.90
9790;DHT22;4934;50.852;8.098;2022-09-30T18:19:07;8.60;99.90
9790;DHT22;4934;50.852;8.098;2022-09-30T18:21:37;8.50;99.90
9790;DHT22;4934;50.852;8.098;2022-09-30T18:24:05;8.40;99.90
9790;DHT22;4934;50.852;8.098;2022-09-30T18:27:00;8.40;99.90
9790;DHT22;4934;50.852;8.098;2022-09-30T18:29:41;8.30;99.90
9790;DHT22;4934;50.852;8.098;2022-09-30T18:32:32;8.20;99.90
9790;DHT22;4934;50.852;8.098;2022-09-30T18:35:00;8.20;99.90
9790;DHT22;4934;50.852;8.098;2022-09-30T18:37:34;8.20;99.90
9790;DHT22;4934;50.852;8.098;2022-09-30T18:40:14;8.10;99.90
9790;DHT22;4934;50.852;8.098;2022-09-30T18:42:51;8.10;99.90
9790;DHT22;4934;50.852;8.098;2022-09-30T18:45:30;8.00;99.90
9790;DHT22;4934;50.852;8.098;2022-09-30T18:48:11;7.90;99.90
9790;DHT22;4934;50.852;8.098;2022-09-30T18:50:38;7.90;99.90
9790;DHT22;4934;50.852;8.098;2022-09-30T18:53:12;7.90;99.90
9790;DHT22;4934;50.852;8.098;2022-09-30T18:55:59;7.80;99.90
9790;DHT22;4934;50.852;8.098;2022-09-30T18:58:40;7.70;99.90
9790;DHT22;4934;50.852;8.098;2022-09-30T19:01:09;7.60;99.90
9790;DHT22;4934;50.852;8.098;2022-09-30T19:03:41;7.50;99.90
9790;DHT22;4934;50.852;8.098;2022-09-30T19:06:10;7.50;99.90
9790;DHT22;4934;50.852;8.098;2022-09-30T19:08:59;7.50;99.90
9790;DHT22;4934;50.852;8.098;2022-09-30T19:12:03;7.50;99.90
9790;DHT22;4934;50.852;8.098;2022-09-30T19:14:34;7.30;99.90
9790;DHT22;4934;50.852;8.098;2022-09-30T19:17:41;7.20;99.90
9790;DHT22;4934;50.852;8.098;2022-09-30T19:20:13;7.30;99.90
9790;DHT22;4934;50.852;8.098;2022-09-30T19:22:42;7.30;99.90
9790;DHT22;4934;50.852;8.098;2022-09-30T19:25:09;7.20;99.90
9790;DHT22;4934;50.852;8.098;2022-09-30T19:27:40;7.20;99.90
9790;DHT22;4934;50.852;8.098;2022-09-30T19:30:07;7.20;99.90
9790;DHT22;4934;50.852;8.098;2022-09-30T19:32:33;7.20;99.90
9790;DHT22;4934;50.852;8.098;2022-09-30T19:35:01;7.10;99.90
9790;DHT22;4934;50.852;8.098;2022-09-30T19:37:27;7.10;99.90
9790;DHT22;4934;50.852;8.098;2022-09-30T19:39:53;7.10;99.90
9790;DHT22;4934;50.852;8.098;2022-09-30T19:42:19;7.20;99.90
9790;DHT22;4934;50.852;8.098;2022-09-30T19:44:45;7.10;99.90
9790;DHT22;4934;50.852;8.098;2022-09-30T19:47:11;7.00;99.90
9790;DHT22;4934;50.852;8.098;2022-09-30T19:49:36;7.00;99.90
9790;DHT22;4934;50.852;8.098;2022-09-30T19:52:02;7.00;99.90
9790;DHT22;4934;50.852;8.098;2022-09-30T19:54:28;6.90;99.90
9790;DHT22;4934;50.852;8.098;2022-09-30T19:56:54;6.90;99.90
9790;DHT22;4934;50.852;8.098;2022-09-30T19:59:19;6.90;99.90